Time;durP1;ratioP1;P1;durP2;ratioP2;P2;SDS_P1;SDS_P2;PMS_P1;PMS_P2;Temp;Humidity;BMP_temperature;BMP_pressure;BME280_temperature;BME280_humidity;BME280_pressure;Samples;Min_cycle;Max_cycle;Signal;HPM_P1;HPM_P2
2023/05/13 00:00:45;;;;;;;0.30;0.30;;;;;;;24.93;38.17;98946.12;1837847;77;28238;-50
2023/05/13 00:03:33;;;;;;;0.40;0.40;;;;;;;24.93;38.19;98937.88;1852550;77;28185;-46
2023/05/13 00:06:22;;;;;;;0.30;0.30;;;;;;;24.93;38.21;98943.38;1851551;77;28173;-49
2023/05/13 00:09:10;;;;;;;0.20;0.20;;;;;;;24.92;38.20;98941.20;1816439;78;28311;-48
2023/05/13 00:11:59;;;;;;;0.50;0.50;;;;;;;24.93;38.20;98937.88;1835287;77;28194;-47
2023/05/13 00:14:48;;;;;;;0.20;0.20;;;;;;;24.93;38.20;98941.47;1820186;77;28231;-46
2023/05/13 00:17:36;;;;;;;0.28;0.28;;;;;;;24.94;38.15;98943.67;1808314;77;28534;-50
2023/05/13 00:20:24;;;;;;;0.40;0.40;;;;;;;24.87;38.18;98937.03;1840792;77;29758;-50
2023/05/13 00:23:13;;;;;;;0.37;0.37;;;;;;;24.93;38.18;98957.95;1829838;77;28691;-49
2023/05/13 00:26:01;;;;;;;1.10;0.40;;;;;;;24.92;38.22;98950.82;1835378;77;28185;-51
2023/05/13 00:28:49;;;;;;;0.40;0.40;;;;;;;24.94;38.16;98943.67;1834953;77;28165;-49
2023/05/13 00:31:37;;;;;;;0.17;0.17;;;;;;;24.93;38.19;98940.09;1841204;77;28206;-50
2023/05/13 00:34:26;;;;;;;0.28;0.28;;;;;;;24.93;38.16;98940.63;1845865;77;28245;-48
2023/05/13 00:37:14;;;;;;;0.70;0.23;;;;;;;24.90;38.21;98943.92;1831263;77;28278;-48
2023/05/13 00:40:03;;;;;;;0.40;0.40;;;;;;;24.92;38.22;98936.25;1795547;78;28314;-46
2023/05/13 00:42:52;;;;;;;0.20;0.20;;;;;;;24.91;38.22;98937.32;1843479;77;28619;-48
2023/05/13 00:45:41;;;;;;;0.53;0.53;;;;;;;24.89;38.22;98937.59;1836839;77;28148;-48
2023/05/13 00:48:30;;;;;;;0.30;0.30;;;;;;;24.89;38.21;98936.77;1851607;77;28212;-48
2023/05/13 00:51:19;;;;;;;0.30;0.30;;;;;;;24.91;38.14;98939.53;1835893;77;28239;-47
2023/05/13 00:54:08;;;;;;;0.40;0.40;;;;;;;24.90;38.21;98939.80;1845884;77;28172;-48
2023/05/13 00:56:58;;;;;;;0.40;0.40;;;;;;;24.91;38.20;98940.91;1811123;78;28251;-50
2023/05/13 00:59:47;;;;;;;0.30;0.25;;;;;;;24.90;38.23;98940.61;1805979;78;28230;-51
2023/05/13 01:02:44;;;;;;;0.23;0.23;;;;;;;24.90;38.24;98941.18;1818268;78;28225;-46
2023/05/13 01:05:53;;;;;;;0.20;0.20;;;;;;;24.89;38.27;98935.39;1818848;78;28300;-46
2023/05/13 01:08:45;;;;;;;0.20;0.20;;;;;;;24.89;38.27;98937.59;1853373;76;28232;-49
2023/05/13 01:11:36;;;;;;;0.20;0.20;;;;;;;24.88;38.27;98932.38;1879215;75;28114;-50
2023/05/13 01:14:28;;;;;;;0.20;0.20;;;;;;;24.89;38.23;98942.26;1870146;75;28201;-47
2023/05/13 01:17:21;;;;;;;0.30;0.30;;;;;;;24.88;38.29;98940.05;1894527;74;28154;-47
2023/05/13 01:20:12;;;;;;;0.23;0.23;;;;;;;24.89;38.27;98937.59;1855954;75;28183;-49
2023/05/13 01:23:02;;;;;;;0.20;0.20;;;;;;;24.88;38.23;98937.30;1870507;75;28039;-49
2023/05/13 01:25:50;;;;;;;0.20;0.20;;;;;;;24.91;38.23;98940.07;1833590;77;28279;-49
2023/05/13 01:28:39;;;;;;;0.75;0.53;;;;;;;24.88;38.27;98941.42;1814866;78;28314;-50
2023/05/13 01:31:29;;;;;;;0.27;0.27;;;;;;;24.89;38.31;98940.34;1806008;78;28323;-47
2023/05/13 01:34:20;;;;;;;0.20;0.20;;;;;;;24.90;38.31;98939.80;1842186;77;28188;-49
2023/05/13 01:37:08;;;;;;;0.40;0.40;;;;;;;24.89;38.28;98941.72;1842445;77;28370;-47
2023/05/13 01:39:59;;;;;;;0.35;0.35;;;;;;;24.85;38.33;98942.51;1829753;77;28128;-49
2023/05/13 01:42:47;;;;;;;0.23;0.23;;;;;;;24.89;38.30;98945.00;1799636;78;28279;-51
2023/05/13 01:45:36;;;;;;;0.30;0.30;;;;;;;24.89;38.32;98945.00;1815123;78;28311;-48
2023/05/13 01:48:25;;;;;;;0.10;0.10;;;;;;;24.88;38.28;98939.25;1808824;78;28155;-49
2023/05/13 01:51:14;;;;;;;0.30;0.30;;;;;;;24.90;38.31;98939.80;1817179;78;28189;-48
2023/05/13 01:54:03;;;;;;;0.30;0.30;;;;;;;24.88;38.29;98937.30;1817857;78;28107;-51
2023/05/13 01:56:52;;;;;;;0.53;0.53;;;;;;;24.87;38.33;98939.78;1877511;75;28043;-51
2023/05/13 01:59:41;;;;;;;0.28;0.28;;;;;;;24.90;38.30;98948.05;1875375;75;28160;-49
2023/05/13 02:02:29;;;;;;;0.30;0.30;;;;;;;24.90;38.27;98946.67;1887762;74;28026;-46
2023/05/13 02:05:18;;;;;;;0.30;0.30;;;;;;;24.90;38.29;98946.67;1876718;75;28266;-49
2023/05/13 02:08:07;;;;;;;0.40;0.40;;;;;;;24.88;38.24;98952.98;1876193;74;28581;-48
2023/05/13 02:11:00;;;;;;;0.40;0.30;;;;;;;24.87;38.29;98950.77;1873308;75;28091;-51
2023/05/13 02:13:49;;;;;;;0.23;0.23;;;;;;;24.86;38.30;98954.59;1841250;77;28272;-48
2023/05/13 02:16:38;;;;;;;0.20;0.20;;;;;;;24.88;38.35;98948.86;1810527;78;28156;-51
2023/05/13 02:19:27;;;;;;;0.70;0.20;;;;;;;24.88;38.32;98951.61;1836596;77;32351;-47
2023/05/13 02:22:15;;;;;;;0.28;0.28;;;;;;;24.85;38.26;98948.84;1831797;77;30125;-46
2023/05/13 02:25:05;;;;;;;0.28;0.28;;;;;;;24.85;38.19;98957.62;1826526;76;28251;-49
2023/05/13 02:27:54;;;;;;;0.30;0.30;;;;;;;24.85;38.27;98958.45;1848305;76;28362;-47
2023/05/13 02:30:43;;;;;;;0.20;0.20;;;;;;;24.88;38.29;98964.77;1834804;77;28214;-48
2023/05/13 02:33:31;;;;;;;0.20;0.20;;;;;;;24.87;38.37;98963.67;1832059;77;28827;-47
2023/05/13 02:36:20;;;;;;;0.28;0.28;;;;;;;24.86;38.34;98966.95;1843345;77;31294;-52
2023/05/13 02:39:09;;;;;;;0.30;0.30;;;;;;;24.85;38.39;98961.20;1861113;76;28309;-49
2023/05/13 02:41:58;;;;;;;0.50;0.30;;;;;;;24.86;38.31;98960.62;1823962;77;28306;-49
2023/05/13 02:44:48;;;;;;;0.20;0.20;;;;;;;24.87;38.30;98967.26;1865363;76;28130;-50
2023/05/13 02:47:38;;;;;;;0.30;0.30;;;;;;;24.84;38.31;98964.19;1841269;76;28148;-47
2023/05/13 02:50:27;;;;;;;0.37;0.37;;;;;;;24.84;38.31;98964.19;1842807;76;38983;-50
2023/05/13 02:53:16;;;;;;;0.20;0.20;;;;;;;24.84;38.32;98963.66;1818406;77;28314;-48
2023/05/13 02:56:06;;;;;;;0.20;0.20;;;;;;;24.80;38.31;98957.57;1814189;77;28378;-48
2023/05/13 02:58:55;;;;;;;0.37;0.37;;;;;;;24.85;38.33;98967.23;1831242;77;28117;-49
2023/05/13 03:01:44;;;;;;;0.40;0.40;;;;;;;24.84;38.31;98966.94;1824893;77;28259;-48
2023/05/13 03:04:32;;;;;;;0.20;0.20;;;;;;;24.84;38.31;98966.40;1852349;76;28169;-47
2023/05/13 03:07:21;;;;;;;0.20;0.20;;;;;;;24.82;38.34;98969.95;1871950;76;28204;-47
2023/05/13 03:10:09;;;;;;;0.20;0.20;;;;;;;24.83;38.37;98973.54;1871130;76;28895;-50
2023/05/13 03:12:58;;;;;;;0.20;0.20;;;;;;;24.84;38.33;98977.39;1820926;77;38766;-50
2023/05/13 03:15:47;;;;;;;0.23;0.23;;;;;;;24.83;38.30;98975.75;1872517;76;28217;-49
2023/05/13 03:18:35;;;;;;;0.23;0.23;;;;;;;24.84;38.32;98971.89;1829471;77;28117;-51
2023/05/13 03:21:24;;;;;;;0.20;0.20;;;;;;;24.84;38.29;98980.67;1845415;76;28271;-49
2023/05/13 03:24:13;;;;;;;0.30;0.30;;;;;;;24.83;38.29;98980.41;1872956;76;28157;-47
2023/05/13 03:27:01;;;;;;;0.30;0.30;;;;;;;24.82;38.29;98982.86;1823028;77;28310;-49
2023/05/13 03:29:50;;;;;;;0.13;0.13;;;;;;;24.83;38.28;98985.91;1862077;75;28196;-46
2023/05/13 03:32:39;;;;;;;0.30;0.30;;;;;;;24.84;38.26;98980.67;1897278;75;28069;-46
2023/05/13 03:35:27;;;;;;;0.55;0.25;;;;;;;24.83;38.26;98979.03;1878919;75;28146;-49
2023/05/13 03:38:16;;;;;;;0.40;0.40;;;;;;;24.83;38.27;98975.75;1887062;75;28068;-49
2023/05/13 03:41:07;;;;;;;0.33;0.28;;;;;;;24.83;38.27;98975.75;1893211;75;28084;-51
2023/05/13 03:43:55;;;;;;;0.27;0.27;;;;;;;24.84;38.22;98973.80;1890225;75;28127;-49
2023/05/13 03:46:44;;;;;;;0.10;0.10;;;;;;;24.82;38.26;98976.83;1901085;73;28476;-51
2023/05/13 03:49:32;;;;;;;0.30;0.30;;;;;;;24.81;38.26;98979.27;1887088;75;28035;-52
2023/05/13 03:52:21;;;;;;;0.30;0.30;;;;;;;24.82;38.28;98981.48;1866017;75;28186;-50
2023/05/13 03:55:10;;;;;;;0.10;0.10;;;;;;;24.81;38.27;98986.71;1895058;75;28105;-51
2023/05/13 03:57:58;;;;;;;0.30;0.30;;;;;;;24.81;38.27;98986.71;1878159;75;28092;-47
2023/05/13 04:00:47;;;;;;;0.20;0.20;;;;;;;24.81;38.22;98986.71;1889424;75;28107;-48
2023/05/13 04:03:35;;;;;;;0.30;0.30;;;;;;;24.82;38.21;98986.44;1879694;75;28231;-49
2023/05/13 04:06:24;;;;;;;0.20;0.20;;;;;;;24.81;38.21;98985.34;1898016;75;28107;-48
2023/05/13 04:09:12;;;;;;;0.28;0.28;;;;;;;24.80;38.22;98987.79;1893819;75;28181;-48
2023/05/13 04:12:02;;;;;;;0.20;0.20;;;;;;;24.80;38.21;98987.25;1887498;75;28138;-49
2023/05/13 04:14:50;;;;;;;0.20;0.20;;;;;;;24.80;38.21;98993.28;1881444;75;28322;-48
2023/05/13 04:17:39;;;;;;;0.30;0.30;;;;;;;24.78;38.27;98995.47;1892602;75;28098;-46
2023/05/13 04:20:28;;;;;;;1.10;0.20;;;;;;;24.79;38.24;98998.48;1890966;75;28062;-52
2023/05/13 04:23:16;;;;;;;0.37;0.30;;;;;;;24.78;38.24;99001.80;1890978;75;28139;-48
2023/05/13 04:26:05;;;;;;;0.20;0.20;;;;;;;24.78;38.15;99000.42;1887488;73;28104;-49
2023/05/13 04:28:53;;;;;;;0.40;0.40;;;;;;;24.80;38.18;99006.48;1871378;75;28132;-48
2023/05/13 04:31:41;;;;;;;0.10;0.10;;;;;;;24.79;38.18;99003.44;1888680;74;28091;-48
2023/05/13 04:34:29;;;;;;;0.30;0.30;;;;;;;24.80;38.16;99005.64;1866938;75;28061;-46
2023/05/13 04:37:18;;;;;;;0.28;0.28;;;;;;;24.78;38.22;99007.29;1873052;75;28190;-48
2023/05/13 04:40:10;;;;;;;0.10;0.10;;;;;;;24.79;38.17;99010.84;1877931;75;28111;-50
2023/05/13 04:42:58;;;;;;;0.15;0.15;;;;;;;24.76;38.19;99019.09;1884062;74;28067;-47
2023/05/13 04:45:49;;;;;;;0.40;0.40;;;;;;;24.76;38.23;99023.20;1886261;75;28022;-47
2023/05/13 04:48:37;;;;;;;0.20;0.20;;;;;;;24.76;38.26;99027.33;1879145;75;28216;-46
2023/05/13 04:51:26;;;;;;;0.15;0.15;;;;;;;24.78;38.24;99028.42;1852163;77;28158;-47
2023/05/13 04:54:16;;;;;;;0.30;0.30;;;;;;;24.77;38.28;99025.38;1815201;78;28234;-48
2023/05/13 04:57:06;;;;;;;0.20;0.20;;;;;;;24.76;38.27;99029.20;1852928;77;28044;-49
2023/05/13 04:59:56;;;;;;;0.30;0.30;;;;;;;24.74;38.24;99030.81;1815264;78;28759;-48
2023/05/13 05:02:45;;;;;;;0.30;0.30;;;;;;;24.75;38.23;99032.49;1843327;77;28134;-50
2023/05/13 05:05:34;;;;;;;0.20;0.20;;;;;;;24.77;38.17;99033.63;1810029;78;28289;-47
2023/05/13 05:08:23;;;;;;;0.20;0.20;;;;;;;24.76;38.15;99034.70;1860577;76;28217;-49
2023/05/13 05:11:12;;;;;;;0.20;0.20;;;;;;;24.77;38.15;99037.20;1851448;76;28224;-47
2023/05/13 05:14:02;;;;;;;0.20;0.20;;;;;;;24.78;38.20;99049.03;1887175;75;28209;-49
2023/05/13 05:16:50;;;;;;;0.30;0.30;;;;;;;24.73;38.03;99039.63;1881638;75;28182;-50
2023/05/13 05:19:39;;;;;;;0.20;0.20;;;;;;;24.70;37.77;99042.88;1913698;74;28092;-50
2023/05/13 05:22:29;;;;;;;1.00;0.20;;;;;;;24.76;37.20;99044.31;1874660;75;28049;-48
2023/05/13 05:25:18;;;;;;;0.20;0.20;;;;;;;24.69;36.92;99048.08;1885439;75;28636;-47
2023/05/13 05:28:09;;;;;;;1.10;0.33;;;;;;;24.69;36.69;99050.83;1903152;74;27974;-48
2023/05/13 05:31:00;;;;;;;0.20;0.20;;;;;;;24.62;36.28;99047.45;1884318;74;28044;-50
2023/05/13 05:33:51;;;;;;;0.20;0.20;;;;;;;24.57;36.53;99049.34;1864119;74;28300;-49
2023/05/13 05:36:39;;;;;;;0.68;0.37;;;;;;;24.60;36.52;99052.38;1877896;75;28132;-47
2023/05/13 05:39:28;;;;;;;0.10;0.10;;;;;;;24.62;36.60;99052.14;1889536;75;28048;-48
2023/05/13 05:42:16;;;;;;;0.20;0.20;;;;;;;24.64;36.80;99050.77;1876513;75;28044;-48
2023/05/13 05:45:05;;;;;;;0.35;0.35;;;;;;;24.62;37.05;99054.89;1885671;75;28154;-48
2023/05/13 05:47:54;;;;;;;0.20;0.20;;;;;;;24.66;37.01;99045.88;1839278;77;28358;-48
2023/05/13 05:50:43;;;;;;;0.15;0.15;;;;;;;24.67;37.13;99050.80;1812447;78;28846;-45
2023/05/13 05:53:36;;;;;;;0.80;0.27;;;;;;;24.69;37.05;99053.58;1852110;77;28247;-48
2023/05/13 05:56:24;;;;;;;0.23;0.23;;;;;;;24.68;37.09;99053.30;1835332;77;28143;-46
2023/05/13 05:59:13;;;;;;;0.30;0.30;;;;;;;24.66;37.12;99059.61;1843350;77;28287;-44
2023/05/13 06:02:03;;;;;;;0.28;0.20;;;;;;;24.65;37.41;99059.30;1812356;78;28104;-47
2023/05/13 06:04:51;;;;;;;0.13;0.13;;;;;;;24.67;37.40;99063.99;1837117;77;28676;-48
2023/05/13 06:07:41;;;;;;;0.15;0.15;;;;;;;24.69;37.39;99060.44;1835012;77;28408;-47
2023/05/13 06:10:29;;;;;;;0.17;0.17;;;;;;;24.69;37.38;99067.30;1828808;77;28832;-46
2023/05/13 06:13:18;;;;;;;0.20;0.20;;;;;;;24.65;37.36;99057.93;1824076;78;28130;-48
2023/05/13 06:16:07;;;;;;;0.13;0.13;;;;;;;24.69;37.38;99076.92;1850407;77;28202;-44
2023/05/13 06:18:57;;;;;;;0.15;0.15;;;;;;;24.68;37.35;99075.81;1840592;77;28337;-48
2023/05/13 06:21:47;;;;;;;0.05;0.05;;;;;;;24.69;37.34;99072.80;1790264;78;28325;-46
2023/05/13 06:24:36;;;;;;;0.90;0.30;;;;;;;24.68;37.36;99072.53;1791251;78;28205;-49
2023/05/13 06:27:25;;;;;;;0.17;0.17;;;;;;;24.67;37.41;99073.61;1817783;78;28195;-46
2023/05/13 06:30:13;;;;;;;0.30;0.30;;;;;;;24.68;37.40;99078.02;1813024;77;28364;-45
2023/05/13 06:33:03;;;;;;;0.20;0.20;;;;;;;24.69;37.41;99081.61;1890788;75;28210;-47
2023/05/13 06:35:52;;;;;;;0.20;0.20;;;;;;;24.71;37.39;99084.35;1883658;75;28019;-47
2023/05/13 06:38:42;;;;;;;1.20;0.30;;;;;;;24.70;37.44;99088.73;1880773;74;28099;-48
2023/05/13 06:41:31;;;;;;;0.30;0.30;;;;;;;24.69;37.49;99086.53;1846891;77;28128;-49
2023/05/13 06:44:21;;;;;;;0.20;0.20;;;;;;;24.70;37.42;99085.45;1846736;77;28271;-47
2023/05/13 06:47:14;;;;;;;0.10;0.10;;;;;;;24.70;37.47;99090.11;1846004;77;28257;-49
2023/05/13 06:50:00;;;;;;;0.20;0.20;;;;;;;24.68;37.50;99084.05;1838824;77;28258;-47
2023/05/13 06:52:48;;;;;;;0.30;0.30;;;;;;;24.70;37.49;99094.23;1826014;77;28181;-50
2023/05/13 06:55:40;;;;;;;1.80;0.40;;;;;;;24.70;37.50;99089.58;1834772;77;28221;-51
2023/05/13 06:58:27;;;;;;;0.40;0.30;;;;;;;24.69;37.53;99094.77;1812975;77;28281;-48
2023/05/13 07:01:16;;;;;;;1.30;0.37;;;;;;;24.67;37.77;99093.37;1815763;77;28253;-50
2023/05/13 07:04:05;;;;;;;1.70;0.50;;;;;;;24.65;37.96;99087.31;1844530;77;28248;-51
2023/05/13 07:06:53;;;;;;;1.40;0.28;;;;;;;24.66;38.10;99090.35;1829224;77;28175;-49
2023/05/13 07:09:41;;;;;;;2.17;0.50;;;;;;;24.67;38.19;99091.45;1837882;77;28220;-46
2023/05/13 07:12:30;;;;;;;0.45;0.45;;;;;;;24.67;38.28;99091.99;1843581;77;28189;-51
2023/05/13 07:15:18;;;;;;;1.20;0.50;;;;;;;24.65;38.45;99097.76;1842005;77;28181;-60
2023/05/13 07:18:07;;;;;;;0.85;0.55;;;;;;;24.65;38.54;99097.76;1834564;77;28161;-57
2023/05/13 07:20:56;;;;;;;0.50;0.50;;;;;;;24.60;38.54;99088.08;1840407;77;28191;-61
2023/05/13 07:23:44;;;;;;;4.35;0.55;;;;;;;24.67;38.47;99098.86;1840150;77;28191;-60
2023/05/13 07:26:33;;;;;;;1.17;0.70;;;;;;;24.70;38.41;99097.82;1819256;77;28276;-60
2023/05/13 07:29:21;;;;;;;0.70;0.40;;;;;;;24.73;38.39;99096.48;1867426;75;28200;-60
2023/05/13 07:32:10;;;;;;;1.30;0.47;;;;;;;24.72;38.40;99099.76;1838825;77;28184;-60
2023/05/13 07:34:58;;;;;;;0.60;0.50;;;;;;;24.72;38.62;99102.50;1819848;78;28278;-60
2023/05/13 07:37:47;;;;;;;0.98;0.60;;;;;;;24.77;38.61;99102.30;1814211;78;28131;-61
2023/05/13 07:40:35;;;;;;;1.05;0.45;;;;;;;24.81;38.56;99106.21;1802007;78;28378;-60
2023/05/13 07:43:23;;;;;;;0.72;0.40;;;;;;;24.80;38.64;99099.05;1807127;78;28296;-60
2023/05/13 07:46:12;;;;;;;0.50;0.50;;;;;;;24.82;38.68;99096.86;1836546;77;29293;-61
2023/05/13 07:49:03;;;;;;;0.82;0.62;;;;;;;24.76;39.06;99091.88;1845161;77;28312;-62
2023/05/13 07:51:51;;;;;;;1.40;0.53;;;;;;;24.76;39.37;99092.38;1822712;78;28160;-60
2023/05/13 07:54:39;;;;;;;1.30;0.47;;;;;;;24.79;39.38;99090.50;1830370;77;28131;-60
2023/05/13 07:57:27;;;;;;;0.40;0.40;;;;;;;24.82;39.34;99087.25;1841445;77;28214;-60
2023/05/13 08:00:17;;;;;;;0.55;0.53;;;;;;;24.85;39.33;99084.83;1838941;77;28228;-60
2023/05/13 08:03:05;;;;;;;0.85;0.53;;;;;;;24.90;39.27;99090.92;1852226;77;28333;-60
2023/05/13 08:05:54;;;;;;;0.50;0.40;;;;;;;24.92;39.28;99083.24;1847960;77;28156;-61
2023/05/13 08:08:42;;;;;;;3.12;0.70;;;;;;;24.91;39.26;99085.16;1839603;77;28126;-60
2023/05/13 08:11:31;;;;;;;0.30;0.30;;;;;;;24.93;39.22;99081.59;1838642;77;30270;-60
2023/05/13 08:14:21;;;;;;;1.40;0.53;;;;;;;24.93;39.23;99084.34;1799258;78;28279;-60
2023/05/13 08:17:10;;;;;;;1.60;0.85;;;;;;;24.92;39.23;99084.62;1821899;78;28162;-59
2023/05/13 08:19:58;;;;;;;0.70;0.70;;;;;;;24.93;39.22;99088.47;1825928;77;28200;-60
2023/05/13 08:22:47;;;;;;;0.33;0.33;;;;;;;24.93;39.21;99089.00;1823980;77;28178;-61
2023/05/13 08:25:35;;;;;;;2.08;0.60;;;;;;;24.94;39.16;99091.52;1849266;77;28223;-60
2023/05/13 08:28:25;;;;;;;0.80;0.60;;;;;;;24.87;39.16;99083.19;1848035;77;32131;-60
2023/05/13 08:31:13;;;;;;;1.60;0.60;;;;;;;24.92;39.20;99090.11;1849871;77;28134;-60
2023/05/13 08:34:02;;;;;;;0.70;0.70;;;;;;;24.91;39.22;99092.02;1836180;76;28240;-60
2023/05/13 08:36:50;;;;;;;0.95;0.60;;;;;;;24.92;39.21;99085.99;1892875;75;28217;-60
2023/05/13 08:39:39;;;;;;;0.90;0.40;;;;;;;24.91;39.40;99090.65;1897306;74;28071;-60
2023/05/13 08:42:30;;;;;;;0.83;0.83;;;;;;;24.94;39.29;99090.14;1890828;75;28143;-60
2023/05/13 08:45:21;;;;;;;1.65;0.70;;;;;;;24.95;39.20;99082.73;1901005;75;28102;-61
2023/05/13 08:48:12;;;;;;;0.60;0.60;;;;;;;24.95;39.25;99082.16;1895945;75;28110;-61
2023/05/13 08:51:01;;;;;;;0.60;0.60;;;;;;;24.94;39.27;99086.55;1879638;75;28161;-61
2023/05/13 08:53:52;;;;;;;1.17;0.70;;;;;;;24.97;39.29;99077.80;1881582;75;28122;-61
2023/05/13 08:56:40;;;;;;;1.10;0.80;;;;;;;24.94;39.27;99079.15;1878824;75;28229;-61
2023/05/13 08:59:28;;;;;;;0.90;0.78;;;;;;;24.97;39.32;99078.61;1822368;77;28347;-61
2023/05/13 09:02:17;;;;;;;1.50;0.70;;;;;;;24.96;39.32;99078.34;1895259;75;28142;-61
2023/05/13 09:05:07;;;;;;;1.20;0.83;;;;;;;24.96;39.37;99074.75;1888758;75;28207;-61
2023/05/13 09:07:56;;;;;;;0.98;0.80;;;;;;;24.97;39.40;99068.19;1880034;75;28169;-61
2023/05/13 09:10:45;;;;;;;0.80;0.75;;;;;;;24.98;39.39;99070.66;1904329;74;28159;-62
2023/05/13 09:13:35;;;;;;;1.80;1.30;;;;;;;24.97;39.44;99071.73;1862761;76;28244;-61
2023/05/13 09:16:27;;;;;;;3.80;1.20;;;;;;;24.99;39.46;99066.00;1887580;74;28103;-61
2023/05/13 09:19:15;;;;;;;1.50;0.80;;;;;;;24.99;39.44;99066.00;1890473;75;28203;-61
2023/05/13 09:22:03;;;;;;;4.05;1.17;;;;;;;24.96;39.49;99061.85;1878869;75;28176;-61
2023/05/13 09:24:55;;;;;;;2.40;1.15;;;;;;;24.97;39.44;99058.56;1884186;74;28074;-61
2023/05/13 09:27:49;;;;;;;1.90;1.17;;;;;;;24.97;39.47;99049.75;1873040;75;28277;-61
2023/05/13 09:30:40;;;;;;;3.25;1.10;;;;;;;24.97;39.39;99053.88;1854212;76;28320;-61
2023/05/13 09:33:31;;;;;;;1.82;1.30;;;;;;;24.96;39.31;99045.91;1885342;75;28211;-61
2023/05/13 09:36:20;;;;;;;1.35;1.27;;;;;;;24.98;39.31;99045.09;1841732;76;28284;-61
2023/05/13 09:39:08;;;;;;;1.67;1.52;;;;;;;24.97;39.27;99047.00;1878252;75;28130;-62
2023/05/13 09:41:56;;;;;;;1.92;1.50;;;;;;;24.97;39.21;99041.52;1896474;74;28140;-62
2023/05/13 09:44:48;;;;;;;1.90;1.53;;;;;;;24.98;39.18;99042.34;1898581;74;28092;-61
2023/05/13 09:47:37;;;;;;;5.92;1.98;;;;;;;24.98;39.13;99040.44;1860680;76;28729;-61
2023/05/13 09:50:25;;;;;;;1.40;1.32;;;;;;;25.00;39.06;99042.37;1895027;75;28148;-61
2023/05/13 09:53:14;;;;;;;3.02;1.67;;;;;;;24.99;39.00;99036.61;1897280;74;28157;-61
2023/05/13 09:56:02;;;;;;;1.65;1.55;;;;;;;24.98;39.01;99039.06;1906722;74;28128;-62
2023/05/13 09:58:54;;;;;;;3.40;1.47;;;;;;;24.99;38.95;99041.27;1885812;75;28243;-61
2023/05/13 10:01:43;;;;;;;2.67;1.50;;;;;;;25.00;38.90;99033.29;1890260;75;28105;-61
2023/05/13 10:04:32;;;;;;;3.87;1.82;;;;;;;25.00;38.83;99038.78;1891487;75;28227;-61
2023/05/13 10:07:24;;;;;;;3.00;1.55;;;;;;;24.99;38.79;99033.86;1907914;74;28188;-61
2023/05/13 10:10:12;;;;;;;2.45;1.50;;;;;;;24.98;38.79;99040.44;1882554;75;28186;-61
2023/05/13 10:13:06;;;;;;;2.02;1.65;;;;;;;25.00;38.82;99037.41;1883552;75;28180;-61
2023/05/13 10:15:56;;;;;;;2.05;1.30;;;;;;;24.99;38.84;99036.61;1893743;74;28158;-61
2023/05/13 10:18:45;;;;;;;1.70;1.60;;;;;;;24.98;38.80;99033.56;1880686;74;28147;-61
2023/05/13 10:21:35;;;;;;;2.40;1.47;;;;;;;25.01;38.81;99041.83;1898428;75;28100;-61
2023/05/13 10:24:25;;;;;;;1.52;1.42;;;;;;;25.00;38.81;99035.50;1869931;75;28303;-61
2023/05/13 10:27:15;;;;;;;2.22;1.50;;;;;;;25.02;38.74;99044.31;1897552;75;28099;-61
2023/05/13 10:30:08;;;;;;;1.70;1.43;;;;;;;25.00;38.77;99038.78;1889857;75;28218;-61
2023/05/13 10:32:55;;;;;;;2.30;1.60;;;;;;;25.04;38.70;99038.57;1892761;74;31998;-62
2023/05/13 10:35:46;;;;;;;3.00;1.98;;;;;;;25.03;38.67;99048.73;1885997;74;28211;-61
2023/05/13 10:38:57;;;;;;;2.50;1.67;;;;;;;25.03;38.68;99043.23;1879906;75;28223;-61
2023/05/13 10:42:01;;;;;;;2.83;1.77;;;;;;;25.02;38.66;99036.06;1898195;75;28144;-61
2023/05/13 10:44:55;;;;;;;2.37;1.62;;;;;;;24.99;38.69;99033.02;1842049;74;28155;-61
2023/05/13 10:47:43;;;;;;;2.20;1.77;;;;;;;24.99;38.68;99041.27;1885785;75;28668;-61
2023/05/13 10:50:31;;;;;;;1.60;1.40;;;;;;;24.99;38.71;99026.16;1891195;75;38492;-61
2023/05/13 10:53:25;;;;;;;1.60;1.50;;;;;;;24.99;38.61;99030.28;1869776;75;28136;-61
2023/05/13 10:56:14;;;;;;;1.72;1.52;;;;;;;25.00;38.58;99038.25;1897746;75;28172;-61
2023/05/13 10:59:04;;;;;;;2.10;1.90;;;;;;;24.99;38.48;99029.73;1891737;75;28258;-61
2023/05/13 11:01:54;;;;;;;2.52;1.90;;;;;;;25.01;38.57;99036.34;1877386;75;28127;-61
2023/05/13 11:04:45;;;;;;;1.70;1.60;;;;;;;25.02;38.49;99033.31;1897662;75;28101;-61
2023/05/13 11:07:38;;;;;;;1.80;1.70;;;;;;;25.03;38.47;99032.23;1895580;75;28112;-61
2023/05/13 11:10:31;;;;;;;1.75;1.65;;;;;;;25.02;38.44;99027.02;1904418;74;28286;-61
2023/05/13 11:13:23;;;;;;;2.60;1.57;;;;;;;25.01;38.43;99023.44;1890832;74;28284;-61
2023/05/13 11:16:14;;;;;;;1.70;1.60;;;;;;;25.00;38.42;99020.92;1858223;76;28340;-61
2023/05/13 11:19:05;;;;;;;1.95;1.47;;;;;;;25.01;38.38;99014.35;1877648;75;28169;-61
2023/05/13 11:21:56;;;;;;;2.55;1.60;;;;;;;25.01;38.36;99024.81;1883087;75;28202;-61
2023/05/13 11:25:07;;;;;;;1.60;1.50;;;;;;;25.01;38.34;99015.19;1881492;74;28151;-61
2023/05/13 11:27:55;;;;;;;1.70;1.60;;;;;;;25.03;38.27;99005.30;1883146;74;28269;-63
2023/05/13 11:30:54;;;;;;;1.73;1.63;;;;;;;24.99;38.33;99007.75;1892586;75;28188;-61
2023/05/13 11:34:08;;;;;;;2.60;1.70;;;;;;;24.99;38.31;99006.38;1873016;75;28161;-62
2023/05/13 11:36:59;;;;;;;2.20;1.42;;;;;;;24.95;38.34;99003.05;1882117;74;28179;-63
2023/05/13 11:39:48;;;;;;;1.70;1.60;;;;;;;24.97;38.33;99010.48;1883421;75;28299;-61
2023/05/13 11:42:38;;;;;;;2.50;1.98;;;;;;;24.98;38.31;99015.70;1889220;75;28183;-63
2023/05/13 11:45:28;;;;;;;2.00;1.45;;;;;;;24.98;38.32;99010.75;1882033;74;28267;-61
2023/05/13 11:48:22;;;;;;;2.00;1.77;;;;;;;25.00;38.26;99009.39;1890088;74;28094;-61
2023/05/13 11:51:11;;;;;;;1.32;1.22;;;;;;;24.99;38.26;99011.05;1885775;75;28222;-63
2023/05/13 11:54:04;;;;;;;2.55;1.50;;;;;;;25.00;38.27;99019.02;1858431;76;28247;-61
2023/05/13 11:56:52;;;;;;;1.73;1.60;;;;;;;25.01;38.18;99010.23;1875359;75;28189;-61
2023/05/13 11:59:41;;;;;;;1.22;1.22;;;;;;;25.00;38.14;99014.89;1889600;75;28205;-61
2023/05/13 12:02:39;;;;;;;1.72;1.60;;;;;;;24.99;38.19;99011.88;1885693;75;28122;-61
2023/05/13 12:05:29;;;;;;;1.63;1.57;;;;;;;25.00;38.12;99015.43;1893621;75;28420;-62
2023/05/13 12:08:17;;;;;;;1.20;1.10;;;;;;;24.98;38.20;99008.00;1868702;76;28369;-62
2023/05/13 12:11:08;;;;;;;1.45;1.35;;;;;;;24.98;38.15;99003.88;1899972;74;28062;-61
2023/05/13 12:13:56;;;;;;;1.50;1.40;;;;;;;24.97;38.17;99003.04;1896143;74;28098;-63
2023/05/13 12:16:44;;;;;;;2.35;1.57;;;;;;;24.99;38.12;99000.05;1861138;76;37038;-61
2023/05/13 12:19:33;;;;;;;2.02;1.35;;;;;;;25.00;38.08;99010.77;1901160;75;28137;-63
2023/05/13 12:22:24;;;;;;;1.30;1.30;;;;;;;24.98;38.09;99003.34;1858966;76;28308;-62
2023/05/13 12:25:38;;;;;;;1.50;1.40;;;;;;;24.96;38.07;99003.31;1847797;76;28318;-62
2023/05/13 12:28:26;;;;;;;1.17;1.12;;;;;;;24.97;38.13;99000.86;1890251;75;28097;-61
2023/05/13 12:31:16;;;;;;;1.30;1.25;;;;;;;24.96;38.09;99004.69;1888833;74;28265;-62
2023/05/13 12:34:05;;;;;;;1.30;1.20;;;;;;;24.96;38.11;99004.15;1881952;74;28266;-62
2023/05/13 12:36:53;;;;;;;1.35;1.32;;;;;;;24.99;38.07;99004.17;1890344;75;28240;-63
2023/05/13 12:39:43;;;;;;;1.25;1.25;;;;;;;25.00;38.07;98996.19;1898998;74;28202;-61
2023/05/13 12:42:31;;;;;;;1.60;1.50;;;;;;;24.98;38.01;98995.63;1901108;74;28150;-61
2023/05/13 12:45:20;;;;;;;1.35;1.25;;;;;;;25.00;38.02;98998.94;1867253;76;28226;-62
2023/05/13 12:48:08;;;;;;;1.40;1.30;;;;;;;24.99;37.95;98997.30;1874092;76;28259;-61
2023/05/13 12:50:57;;;;;;;1.20;1.03;;;;;;;25.02;38.00;98995.41;1869043;76;28240;-61
2023/05/13 12:53:45;;;;;;;1.27;1.22;;;;;;;25.00;37.96;98986.58;1857267;76;28162;-62
2023/05/13 12:56:33;;;;;;;1.32;1.10;;;;;;;24.99;38.01;98990.44;1837117;76;28172;-62
2023/05/13 12:59:22;;;;;;;1.37;1.27;;;;;;;25.02;37.98;98994.04;1907524;74;28143;-62
2023/05/13 13:02:10;;;;;;;1.40;1.30;;;;;;;25.00;37.94;98987.95;1893997;74;28184;-61
2023/05/13 13:04:59;;;;;;;1.45;1.35;;;;;;;25.01;37.94;98986.33;1895016;74;28141;-61
2023/05/13 13:07:48;;;;;;;1.10;0.90;;;;;;;25.02;37.93;98985.80;1868712;76;28279;-61
2023/05/13 13:10:36;;;;;;;1.47;1.20;;;;;;;24.99;37.92;98996.77;1862469;76;28241;-61
2023/05/13 13:13:24;;;;;;;0.88;0.88;;;;;;;25.01;37.92;98997.86;1858674;76;28257;-61
2023/05/13 13:16:13;;;;;;;1.02;1.02;;;;;;;25.01;37.93;98996.48;1833315;77;28277;-62
2023/05/13 13:19:02;;;;;;;1.10;1.10;;;;;;;25.00;37.93;98998.41;1862068;76;28261;-61